createdAt,value
2022-10-06T00:02:12.555Z,99.90
2022-10-06T00:04:39.587Z,99.90
2022-10-06T00:07:06.488Z,99.90
2022-10-06T00:09:33.524Z,99.90
2022-10-06T00:12:00.521Z,99.90
2022-10-06T00:14:27.510Z,99.90
2022-10-06T00:16:54.287Z,99.90
2022-10-06T00:19:21.356Z,99.90
2022-10-06T00:21:48.282Z,99.90
2022-10-06T00:24:15.116Z,99.90
2022-10-06T00:26:41.959Z,99.90
2022-10-06T00:29:08.833Z,99.90
2022-10-06T00:31:35.729Z,99.90
2022-10-06T00:34:02.579Z,99.90
2022-10-06T00:36:29.434Z,99.90
2022-10-06T00:38:56.785Z,99.90
2022-10-06T00:41:23.726Z,99.90
2022-10-06T00:43:52.046Z,99.90
2022-10-06T00:46:36.150Z,99.90
2022-10-06T00:49:19.116Z,99.90
2022-10-06T00:51:51.847Z,99.90
2022-10-06T00:54:18.849Z,99.90
2022-10-06T00:56:45.704Z,99.90
2022-10-06T00:59:13.931Z,99.90
2022-10-06T01:01:42.716Z,99.90
2022-10-06T01:04:10.470Z,99.90
2022-10-06T01:06:42.351Z,99.90
2022-10-06T01:09:09.288Z,99.90
2022-10-06T01:11:37.723Z,99.90
2022-10-06T01:14:04.821Z,99.90
2022-10-06T01:16:31.743Z,99.90
2022-10-06T01:18:58.607Z,99.90
2022-10-06T01:21:40.213Z,99.90
2022-10-06T01:24:09.662Z,99.90
2022-10-06T01:26:38.142Z,99.90
2022-10-06T01:29:05.088Z,99.90
2022-10-06T01:31:32.374Z,99.90
2022-10-06T01:33:59.745Z,99.90
2022-10-06T01:36:26.608Z,99.90
2022-10-06T01:38:53.470Z,99.90
2022-10-06T01:41:22.460Z,99.90
2022-10-06T01:43:49.657Z,99.90
2022-10-06T01:46:16.697Z,99.90
2022-10-06T01:48:43.559Z,99.90
2022-10-06T01:51:14.487Z,99.90
2022-10-06T01:53:41.447Z,99.90
2022-10-06T01:56:08.434Z,99.90
2022-10-06T01:58:35.897Z,99.90
2022-10-06T02:01:09.649Z,99.90
2022-10-06T02:03:37.473Z,99.90
2022-10-06T02:06:04.452Z,99.90
2022-10-06T02:08:32.374Z,99.90
2022-10-06T02:11:10.806Z,99.90
2022-10-06T02:13:45.802Z,99.90
2022-10-06T02:16:14.087Z,99.90
2022-10-06T02:18:42.498Z,99.90
2022-10-06T02:21:14.361Z,99.90
2022-10-06T02:23:41.254Z,99.90
2022-10-06T02:26:08.134Z,99.90
2022-10-06T02:28:35.651Z,99.90
2022-10-06T02:31:05.560Z,99.90
2022-10-06T02:33:33.118Z,99.90
2022-10-06T02:36:00.621Z,99.90
2022-10-06T02:38:28.918Z,99.90
2022-10-06T02:40:57.566Z,99.90
2022-10-06T02:43:26.224Z,99.90
2022-10-06T02:45:54.380Z,99.90
2022-10-06T02:48:21.593Z,99.90
2022-10-06T02:51:15.719Z,99.90
2022-10-06T02:53:44.460Z,99.90
2022-10-06T02:56:13.016Z,99.90
2022-10-06T02:58:40.109Z,99.90
2022-10-06T03:01:14.894Z,99.90
2022-10-06T03:03:41.837Z,99.90
2022-10-06T03:06:23.902Z,99.90
2022-10-06T03:09:02.080Z,99.90
2022-10-06T03:11:34.822Z,99.90
2022-10-06T03:14:03.117Z,99.90
2022-10-06T03:16:41.565Z,99.90
2022-10-06T03:19:14.242Z,99.90
2022-10-06T03:21:44.565Z,99.90
2022-10-06T03:24:12.944Z,99.90
2022-10-06T03:26:43.297Z,99.90
2022-10-06T03:29:11.873Z,99.90
2022-10-06T03:31:43.253Z,99.90
2022-10-06T03:34:10.370Z,99.90
2022-10-06T03:36:37.421Z,99.90
2022-10-06T03:39:04.867Z,99.90
2022-10-06T03:41:34.713Z,99.90
2022-10-06T03:44:01.781Z,99.90
2022-10-06T03:46:32.223Z,99.90
2022-10-06T03:49:00.640Z,99.90
2022-10-06T03:51:31.283Z,99.90
2022-10-06T03:53:59.023Z,99.90
2022-10-06T03:56:30.422Z,99.90
2022-10-06T03:59:01.947Z,99.90
2022-10-06T04:01:48.296Z,99.90
2022-10-06T04:04:23.165Z,99.90
2022-10-06T04:06:54.135Z,99.90
2022-10-06T04:09:21.629Z,99.90
2022-10-06T04:11:48.596Z,99.90
2022-10-06T04:14:16.232Z,99.90
2022-10-06T04:16:45.577Z,99.90
2022-10-06T04:19:14.498Z,99.90
2022-10-06T04:21:46.178Z,99.90
2022-10-06T04:24:18.382Z,99.90
2022-10-06T04:26:50.967Z,99.90
2022-10-06T04:29:18.784Z,99.90
2022-10-06T04:31:50.456Z,99.90
2022-10-06T04:34:25.591Z,99.90
2022-10-06T04:36:53.557Z,99.90
2022-10-06T04:39:20.849Z,99.90
2022-10-06T04:41:47.754Z,99.90
2022-10-06T04:44:19.440Z,99.90
2022-10-06T04:46:47.278Z,99.90
2022-10-06T04:49:20.110Z,99.90
2022-10-06T04:51:49.770Z,99.90
2022-10-06T04:54:18.640Z,99.90
2022-10-06T04:56:46.569Z,99.90
2022-10-06T04:59:15.093Z,99.90
2022-10-06T05:01:44.011Z,99.90
2022-10-06T05:04:13.074Z,99.90
2022-10-06T05:06:41.298Z,99.90
2022-10-06T05:09:10.754Z,99.90
2022-10-06T05:11:39.643Z,99.90
2022-10-06T05:14:09.002Z,99.90
2022-10-06T05:16:39.370Z,99.90
2022-10-06T05:19:08.243Z,99.90
2022-10-06T05:21:38.020Z,99.90
2022-10-06T05:24:07.006Z,99.90
2022-10-06T05:26:34.870Z,99.90
2022-10-06T05:29:04.327Z,99.90
2022-10-06T05:31:32.792Z,99.90
2022-10-06T05:34:02.937Z,99.90
2022-10-06T05:36:30.867Z,99.90
2022-10-06T05:38:58.148Z,99.90
2022-10-06T05:41:28.893Z,99.90
2022-10-06T05:43:58.342Z,99.90
2022-10-06T05:46:28.381Z,99.90
2022-10-06T05:48:57.835Z,99.90
2022-10-06T05:51:30.961Z,99.90
2022-10-06T05:53:59.941Z,99.90
2022-10-06T05:56:28.255Z,99.90
2022-10-06T05:58:55.691Z,99.90
2022-10-06T06:01:28.109Z,99.90
2022-10-06T06:03:59.378Z,99.90
2022-10-06T06:06:28.660Z,99.90
2022-10-06T06:09:02.627Z,99.90
2022-10-06T06:11:31.612Z,99.90
2022-10-06T06:13:59.952Z,99.90
2022-10-06T06:16:28.648Z,99.90
2022-10-06T06:18:55.605Z,99.90
2022-10-06T06:21:22.624Z,99.90
2022-10-06T06:23:50.166Z,99.90
2022-10-06T06:26:20.351Z,99.90
2022-10-06T06:28:51.054Z,99.90
2022-10-06T06:31:29.572Z,99.90
2022-10-06T06:33:57.606Z,99.90
2022-10-06T06:36:35.774Z,99.90
2022-10-06T06:39:06.489Z,99.90
2022-10-06T06:41:37.733Z,99.90
2022-10-06T06:44:19.428Z,99.90
2022-10-06T06:47:01.287Z,99.90
2022-10-06T06:49:28.418Z,99.90
2022-10-06T06:51:59.836Z,99.90
2022-10-06T06:54:28.372Z,99.90
2022-10-06T06:57:03.512Z,99.90
2022-10-06T06:59:33.058Z,99.90
2022-10-06T07:02:01.101Z,99.90
2022-10-06T07:04:32.880Z,99.90
2022-10-06T07:07:00.563Z,99.90
2022-10-06T07:09:33.546Z,99.90
2022-10-06T07:12:04.290Z,99.90
2022-10-06T07:14:31.388Z,99.90
2022-10-06T07:17:17.912Z,99.90
2022-10-06T07:19:51.299Z,99.90
2022-10-06T07:22:39.083Z,99.90
2022-10-06T07:25:25.317Z,99.90
2022-10-06T07:27:56.119Z,99.90
2022-10-06T07:30:28.146Z,99.90
2022-10-06T07:33:05.130Z,99.90
2022-10-06T07:35:33.084Z,99.90
2022-10-06T07:38:02.207Z,99.90
2022-10-06T07:40:31.123Z,99.90
2022-10-06T07:42:58.469Z,99.90
2022-10-06T07:45:38.857Z,99.90
2022-10-06T07:48:14.635Z,99.90
2022-10-06T07:50:43.785Z,99.90
2022-10-06T07:53:12.299Z,99.90
2022-10-06T07:55:46.353Z,99.90
2022-10-06T07:58:24.007Z,99.90
2022-10-06T08:00:53.001Z,99.90
2022-10-06T08:03:20.162Z,99.90
2022-10-06T08:05:48.058Z,99.90
2022-10-06T08:08:15.112Z,99.90
2022-10-06T08:10:42.708Z,99.90
2022-10-06T08:13:10.439Z,99.90
2022-10-06T08:15:37.370Z,99.90
2022-10-06T08:18:16.429Z,99.90
2022-10-06T08:20:43.581Z,99.90
2022-10-06T08:23:12.032Z,99.90
2022-10-06T08:25:43.280Z,99.90
2022-10-06T08:28:10.846Z,99.90
2022-10-06T08:30:38.023Z,99.90
2022-10-06T08:33:05.697Z,99.90
2022-10-06T08:35:36.396Z,99.90
2022-10-06T08:38:03.317Z,99.90
2022-10-06T08:40:30.144Z,99.90
2022-10-06T08:42:58.294Z,99.90
2022-10-06T08:45:38.385Z,99.90
2022-10-06T08:48:15.710Z,99.90
2022-10-06T08:50:58.633Z,99.90
2022-10-06T08:53:30.285Z,99.90
2022-10-06T08:56:19.363Z,99.90
2022-10-06T08:59:04.096Z,99.90
2022-10-06T09:01:43.502Z,99.90
2022-10-06T09:04:10.889Z,99.90
2022-10-06T09:06:45.408Z,99.90
2022-10-06T09:09:53.683Z,99.90
2022-10-06T09:12:35.539Z,99.90
2022-10-06T09:15:33.745Z,99.90
2022-10-06T09:19:03.470Z,99.90
2022-10-06T09:21:35.438Z,99.90
2022-10-06T09:24:06.789Z,99.90
2022-10-06T09:26:34.058Z,99.90
2022-10-06T09:29:00.947Z,99.90
2022-10-06T09:31:42.336Z,99.90
2022-10-06T09:34:20.229Z,99.90
2022-10-06T09:37:11.078Z,99.90
2022-10-06T09:39:48.043Z,99.90
2022-10-06T09:42:22.857Z,99.90
2022-10-06T09:45:02.537Z,99.90
2022-10-06T09:47:31.901Z,99.70
2022-10-06T09:50:24.933Z,99.70
2022-10-06T09:52:57.771Z,99.50
2022-10-06T09:55:28.737Z,99.80
2022-10-06T09:57:56.251Z,99.90
2022-10-06T10:01:00.262Z,99.90
2022-10-06T10:03:44.564Z,99.60
2022-10-06T10:06:29.284Z,99.60
2022-10-06T10:09:21.726Z,99.20
2022-10-06T10:12:19.941Z,99.10
2022-10-06T10:14:47.406Z,99.20
2022-10-06T10:17:19.534Z,99.30
2022-10-06T10:19:53.179Z,99.30
2022-10-06T10:22:40.070Z,99.40
2022-10-06T10:25:32.191Z,98.90
2022-10-06T10:28:14.156Z,98.50
2022-10-06T10:30:49.999Z,98.30
2022-10-06T10:33:22.667Z,98.60
2022-10-06T10:35:51.348Z,98.70
2022-10-06T10:38:24.849Z,97.70
2022-10-06T10:41:25.564Z,97.50
2022-10-06T10:44:28.409Z,97.00
2022-10-06T10:46:59.590Z,97.10
2022-10-06T10:49:28.561Z,97.70
2022-10-06T10:51:57.275Z,98.10
2022-10-06T10:54:44.482Z,98.00
2022-10-06T10:57:17.930Z,97.00
2022-10-06T10:59:57.082Z,97.30
2022-10-06T11:02:24.046Z,97.20
2022-10-06T11:04:58.246Z,97.40
2022-10-06T11:07:39.161Z,97.50
2022-10-06T11:10:20.195Z,96.60
2022-10-06T11:13:18.992Z,96.50
2022-10-06T11:16:04.583Z,96.20
2022-10-06T11:18:41.428Z,96.30
2022-10-06T11:21:55.980Z,96.10
2022-10-06T11:24:54.273Z,95.80
2022-10-06T11:27:24.151Z,95.80
2022-10-06T11:29:55.354Z,96.70
2022-10-06T11:32:26.772Z,96.70
2022-10-06T11:34:53.659Z,96.50
2022-10-06T11:37:31.186Z,96.30
2022-10-06T11:40:29.270Z,96.10
2022-10-06T11:43:24.691Z,95.20
2022-10-06T11:46:05.926Z,96.20
2022-10-06T11:48:33.162Z,95.10
2022-10-06T11:51:24.889Z,96.10
2022-10-06T11:53:52.536Z,95.10
2022-10-06T11:56:19.399Z,96.10
2022-10-06T11:58:52.526Z,95.90
2022-10-06T12:01:45.441Z,95.50
2022-10-06T12:04:14.252Z,94.60
2022-10-06T12:06:46.605Z,95.90
2022-10-06T12:09:37.906Z,95.30
2022-10-06T12:12:19.798Z,94.70
2022-10-06T12:18:05.168Z,95.00
2022-10-06T12:20:53.908Z,94.70
2022-10-06T12:23:36.254Z,93.50
2022-10-06T12:26:14.985Z,94.90
2022-10-06T12:28:45.321Z,93.50
2022-10-06T12:31:21.418Z,94.10
2022-10-06T12:33:48.471Z,93.60
2022-10-06T12:36:31.329Z,94.50
2022-10-06T12:39:06.664Z,94.20
2022-10-06T12:41:58.831Z,94.00
2022-10-06T12:44:38.253Z,93.20
2022-10-06T12:47:10.716Z,93.80
2022-10-06T12:49:49.399Z,94.10
2022-10-06T12:52:50.714Z,93.70
2022-10-06T12:55:51.040Z,93.00
2022-10-06T12:58:26.690Z,93.00
2022-10-06T13:00:53.618Z,93.50
2022-10-06T13:03:24.268Z,93.80
2022-10-06T13:05:53.050Z,93.70
2022-10-06T13:08:26.677Z,94.10
2022-10-06T13:11:21.235Z,94.10
2022-10-06T13:13:55.454Z,93.00
2022-10-06T13:16:23.716Z,93.50
2022-10-06T13:18:54.263Z,93.80
2022-10-06T13:21:21.134Z,93.40
2022-10-06T13:23:48.035Z,93.70
2022-10-06T13:26:30.901Z,93.70
2022-10-06T13:28:58.742Z,92.60
2022-10-06T13:31:31.337Z,93.00
2022-10-06T13:34:05.830Z,93.20
2022-10-06T13:36:39.587Z,92.70
2022-10-06T13:39:07.035Z,93.30
2022-10-06T13:41:38.280Z,93.60
2022-10-06T13:44:18.723Z,92.30
2022-10-06T13:46:51.886Z,92.70
2022-10-06T13:49:24.679Z,93.20
2022-10-06T13:51:55.319Z,93.40
2022-10-06T13:54:38.624Z,92.80
2022-10-06T13:59:44.668Z,93.20
2022-10-06T14:02:25.390Z,92.90
2022-10-06T14:05:20.406Z,92.40
2022-10-06T14:07:47.807Z,92.60
2022-10-06T14:10:31.382Z,93.30
2022-10-06T14:13:00.689Z,93.10
2022-10-06T14:15:30.826Z,93.20
2022-10-06T14:18:02.397Z,93.30
2022-10-06T14:20:48.775Z,93.10
2022-10-06T14:23:37.092Z,92.90
2022-10-06T14:26:03.903Z,93.00
2022-10-06T14:28:30.828Z,93.50
2022-10-06T14:30:57.891Z,93.40
2022-10-06T14:33:25.303Z,93.80
2022-10-06T14:35:52.468Z,93.70
2022-10-06T14:38:19.762Z,93.30
2022-10-06T14:40:46.937Z,93.50
2022-10-06T14:43:14.460Z,93.50
2022-10-06T14:45:42.157Z,93.70
2022-10-06T14:48:09.636Z,93.90
2022-10-06T14:50:36.554Z,94.00
2022-10-06T14:53:03.580Z,93.90
2022-10-06T14:55:31.198Z,94.00
2022-10-06T14:57:58.269Z,94.10
2022-10-06T15:00:28.282Z,94.20
2022-10-06T15:02:56.390Z,94.10
2022-10-06T15:05:23.806Z,94.30
2022-10-06T15:08:09.305Z,94.20
2022-10-06T15:10:38.250Z,94.10
2022-10-06T15:13:07.494Z,94.20
2022-10-06T15:15:34.513Z,94.10
2022-10-06T15:18:02.852Z,94.10
2022-10-06T15:20:29.995Z,94.30
2022-10-06T15:22:57.233Z,94.40
2022-10-06T15:25:42.949Z,94.60
2022-10-06T15:28:33.647Z,94.80
2022-10-06T15:31:00.767Z,95.20
2022-10-06T15:33:30.281Z,94.80
2022-10-06T15:36:17.604Z,95.00
2022-10-06T15:38:44.441Z,95.00
2022-10-06T15:41:11.274Z,95.20
2022-10-06T15:43:57.786Z,95.20
2022-10-06T15:46:28.896Z,95.50
2022-10-06T15:49:12.099Z,95.50
2022-10-06T15:51:50.198Z,95.80
2022-10-06T15:54:21.908Z,95.70
2022-10-06T15:56:53.228Z,95.80
2022-10-06T15:59:24.028Z,95.90
2022-10-06T16:01:52.345Z,96.00
2022-10-06T16:04:46.931Z,96.20
2022-10-06T16:07:19.009Z,96.30
2022-10-06T16:09:47.191Z,96.40
2022-10-06T16:12:18.871Z,96.30
2022-10-06T16:14:45.878Z,96.40
2022-10-06T16:17:12.823Z,96.70
2022-10-06T16:19:42.754Z,96.50
2022-10-06T16:22:16.781Z,96.50
2022-10-06T16:24:43.629Z,96.50
2022-10-06T16:27:12.699Z,96.40
2022-10-06T16:29:39.483Z,96.50
2022-10-06T16:32:06.517Z,96.60
2022-10-06T16:34:33.613Z,96.60
2022-10-06T16:37:00.489Z,96.60
2022-10-06T16:39:27.332Z,96.60
2022-10-06T16:41:54.677Z,96.60
2022-10-06T16:44:21.555Z,96.40
2022-10-06T16:46:48.437Z,96.30
2022-10-06T16:49:15.331Z,96.20
2022-10-06T16:51:43.148Z,96.20
2022-10-06T16:54:13.975Z,96.20
2022-10-06T16:56:42.638Z,96.30
2022-10-06T16:59:20.154Z,96.30
2022-10-06T17:01:47.557Z,96.40
2022-10-06T17:04:15.605Z,96.50
2022-10-06T17:06:47.047Z,96.50
2022-10-06T17:09:21.565Z,96.60
2022-10-06T17:11:50.135Z,96.70
2022-10-06T17:14:17.314Z,96.60
2022-10-06T17:16:45.090Z,96.80
2022-10-06T17:19:12.823Z,96.90
2022-10-06T17:21:46.153Z,97.00
2022-10-06T17:24:13.912Z,97.20
2022-10-06T17:26:41.793Z,97.30
2022-10-06T17:29:13.672Z,97.60
2022-10-06T17:31:42.164Z,97.80
2022-10-06T17:34:21.714Z,98.10
2022-10-06T17:36:50.874Z,98.10
2022-10-06T17:39:21.953Z,98.20
2022-10-06T17:41:49.786Z,98.30
2022-10-06T17:44:28.555Z,98.70
2022-10-06T17:46:57.181Z,98.70
2022-10-06T17:49:24.502Z,99.10
2022-10-06T17:51:53.385Z,99.10
2022-10-06T17:54:21.303Z,99.30
2022-10-06T17:56:49.668Z,99.40
2022-10-06T17:59:21.100Z,99.60
2022-10-06T18:01:48.267Z,99.80
2022-10-06T18:04:18.377Z,99.90
2022-10-06T18:06:46.113Z,99.90
2022-10-06T18:09:13.153Z,99.90
2022-10-06T18:11:43.048Z,99.90
2022-10-06T18:14:20.033Z,99.90
2022-10-06T18:16:53.454Z,99.90
2022-10-06T18:19:30.566Z,99.90
2022-10-06T18:22:03.024Z,99.90
2022-10-06T18:24:30.398Z,99.90
2022-10-06T18:26:58.115Z,99.90
2022-10-06T18:29:26.752Z,99.90
2022-10-06T18:31:53.771Z,99.90
2022-10-06T18:37:07.753Z,99.90
2022-10-06T18:39:34.950Z,99.90
2022-10-06T18:42:05.223Z,99.90
2022-10-06T18:44:50.561Z,99.90
2022-10-06T18:47:36.034Z,99.90
2022-10-06T18:50:03.003Z,99.90
2022-10-06T18:52:29.941Z,99.90
2022-10-06T18:54:56.748Z,99.90
2022-10-06T18:57:27.738Z,99.90
2022-10-06T18:59:57.861Z,99.90
2022-10-06T19:02:26.456Z,99.90
2022-10-06T19:04:53.436Z,99.90
2022-10-06T19:07:20.299Z,99.90
2022-10-06T19:09:47.573Z,99.90
2022-10-06T19:12:14.388Z,99.90
2022-10-06T19:14:47.345Z,99.90
2022-10-06T19:17:15.013Z,99.90
2022-10-06T19:19:46.230Z,99.90
2022-10-06T19:22:13.854Z,99.90
2022-10-06T19:24:44.721Z,99.90
2022-10-06T19:27:15.181Z,99.90
2022-10-06T19:29:45.893Z,99.90
2022-10-06T19:32:17.707Z,99.90
2022-10-06T19:34:44.733Z,99.90
2022-10-06T19:37:11.803Z,99.90
2022-10-06T19:39:42.639Z,99.90
2022-10-06T19:42:35.292Z,99.90
2022-10-06T19:45:02.147Z,99.90
2022-10-06T19:47:29.030Z,99.90
2022-10-06T19:50:00.804Z,99.90
2022-10-06T19:52:31.229Z,99.90
2022-10-06T19:54:58.310Z,99.90
2022-10-06T19:57:28.495Z,99.90
2022-10-06T19:59:55.367Z,99.90
2022-10-06T20:02:22.412Z,99.90
2022-10-06T20:04:50.481Z,99.90
2022-10-06T20:07:21.493Z,99.90
2022-10-06T20:09:48.432Z,99.90
2022-10-06T20:12:18.654Z,99.90
2022-10-06T20:14:47.902Z,99.90
2022-10-06T20:17:15.262Z,99.90
2022-10-06T20:19:42.112Z,99.90
2022-10-06T20:22:08.894Z,99.90
2022-10-06T20:24:35.817Z,99.90
2022-10-06T20:27:02.646Z,99.90
2022-10-06T20:29:31.496Z,99.90
2022-10-06T20:31:58.823Z,99.90
2022-10-06T20:34:31.431Z,99.90
2022-10-06T20:37:00.136Z,99.90
2022-10-06T20:39:45.415Z,99.90
2022-10-06T20:42:15.291Z,99.90
2022-10-06T20:44:43.101Z,99.90
2022-10-06T20:47:10.729Z,99.90
2022-10-06T20:49:37.632Z,99.90
2022-10-06T20:52:05.033Z,99.90
2022-10-06T20:54:35.005Z,99.90
2022-10-06T20:57:04.916Z,99.90
2022-10-06T20:59:32.043Z,99.90
2022-10-06T21:02:01.648Z,99.90
2022-10-06T21:04:28.598Z,99.90
2022-10-06T21:06:55.460Z,99.90
2022-10-06T21:09:24.202Z,99.90
2022-10-06T21:11:51.192Z,99.90
2022-10-06T21:14:18.374Z,99.90
2022-10-06T21:16:46.059Z,99.90
2022-10-06T21:19:14.527Z,99.90
2022-10-06T21:21:42.502Z,99.90
2022-10-06T21:24:09.495Z,99.90
2022-10-06T21:26:36.542Z,99.90
2022-10-06T21:29:03.984Z,99.90
2022-10-06T21:31:30.875Z,99.90
2022-10-06T21:33:57.953Z,99.90
2022-10-06T21:36:26.136Z,99.90
2022-10-06T21:38:57.089Z,99.90
2022-10-06T21:41:40.456Z,99.90
2022-10-06T21:44:14.666Z,99.90
2022-10-06T21:46:42.877Z,99.90
2022-10-06T21:49:11.806Z,99.90
2022-10-06T21:51:38.859Z,99.90
2022-10-06T21:54:05.844Z,99.90
2022-10-06T21:56:33.772Z,99.90
2022-10-06T21:59:00.761Z,99.90
2022-10-06T22:01:29.209Z,99.90
2022-10-06T22:03:57.329Z,99.90
2022-10-06T22:06:24.148Z,99.90
2022-10-06T22:08:51.083Z,99.90
2022-10-06T22:11:25.576Z,99.90
2022-10-06T22:13:57.168Z,99.90
2022-10-06T22:16:25.166Z,99.90
2022-10-06T22:18:52.136Z,99.90
2022-10-06T22:21:20.071Z,99.90
2022-10-06T22:23:47.984Z,99.90
2022-10-06T22:26:15.722Z,99.90
2022-10-06T22:28:46.918Z,99.90
2022-10-06T22:31:14.689Z,99.90
2022-10-06T22:33:41.806Z,99.90
2022-10-06T22:36:10.296Z,99.90
2022-10-06T22:38:37.197Z,99.90
2022-10-06T22:41:05.939Z,99.90
2022-10-06T22:43:33.221Z,99.90
2022-10-06T22:46:00.133Z,99.90
2022-10-06T22:48:27.160Z,99.90
2022-10-06T22:50:54.148Z,99.90
2022-10-06T22:53:23.027Z,99.90
2022-10-06T22:55:49.980Z,99.90
2022-10-06T22:58:16.997Z,99.90
2022-10-06T23:00:44.041Z,99.90
2022-10-06T23:03:11.077Z,99.90
2022-10-06T23:05:37.985Z,99.90
2022-10-06T23:08:05.258Z,99.90
2022-10-06T23:10:33.717Z,99.90
2022-10-06T23:13:00.913Z,99.90
2022-10-06T23:15:27.948Z,99.90
2022-10-06T23:17:54.779Z,99.90
2022-10-06T23:20:21.834Z,99.90
2022-10-06T23:22:48.637Z,99.90
2022-10-06T23:25:15.868Z,99.90
2022-10-06T23:27:42.930Z,99.90
2022-10-06T23:30:15.467Z,99.90
2022-10-06T23:32:43.497Z,99.90
2022-10-06T23:35:10.879Z,99.90
2022-10-06T23:37:37.827Z,99.90
2022-10-06T23:40:05.656Z,99.90
2022-10-06T23:42:32.870Z,99.90
2022-10-06T23:44:59.620Z,99.90
2022-10-06T23:47:26.595Z,99.90
2022-10-06T23:49:54.266Z,99.90
2022-10-06T23:52:21.119Z,99.90
2022-10-06T23:54:48.113Z,99.90
2022-10-06T23:57:14.928Z,99.90
2022-10-06T23:59:42.501Z,99.90
